sensor_id;sensor_type;location;lat;lon;timestamp;pressure;altitude;pressure_sealevel;temperature;humidity
31775;BME280;66189;49.000;11.640;2023-05-12T00:00:00;95715.31;;;8.61;93.58
31775;BME280;66189;49.000;11.640;2023-05-12T00:02:02;95715.75;;;8.63;93.62
31775;BME280;66189;49.000;11.640;2023-05-12T00:04:02;95715.91;;;8.70;93.43
31775;BME280;66189;49.000;11.640;2023-05-12T00:06:02;95711.06;;;8.60;93.38
31775;BME280;66189;49.000;11.640;2023-05-12T00:08:03;95708.47;;;8.64;93.23
31775;BME280;66189;49.000;11.640;2023-05-12T00:10:04;95706.28;;;8.69;93.27
31775;BME280;66189;49.000;11.640;2023-05-12T00:12:04;95708.81;;;8.62;93.50
31775;BME280;66189;49.000;11.640;2023-05-12T00:14:05;95713.13;;;8.67;93.64
31775;BME280;66189;49.000;11.640;2023-05-12T00:16:05;95708.41;;;8.60;93.54
31775;BME280;66189;49.000;11.640;2023-05-12T00:18:05;95710.88;;;8.69;93.71
31775;BME280;66189;49.000;11.640;2023-05-12T00:20:06;95708.09;;;8.65;93.50
31775;BME280;66189;49.000;11.640;2023-05-12T00:22:06;95700.06;;;8.65;93.48
31775;BME280;66189;49.000;11.640;2023-05-12T00:24:07;95701.63;;;8.66;93.30
31775;BME280;66189;49.000;11.640;2023-05-12T00:26:07;95707.00;;;8.66;93.27
31775;BME280;66189;49.000;11.640;2023-05-12T00:28:08;95707.44;;;8.68;93.46
31775;BME280;66189;49.000;11.640;2023-05-12T00:30:08;95705.69;;;8.76;93.27
31775;BME280;66189;49.000;11.640;2023-05-12T00:32:09;95703.97;;;8.68;93.17
31775;BME280;66189;49.000;11.640;2023-05-12T00:34:10;95705.44;;;8.65;93.25
31775;BME280;66189;49.000;11.640;2023-05-12T00:36:10;95704.25;;;8.63;93.49
31775;BME280;66189;49.000;11.640;2023-05-12T00:38:11;95705.44;;;8.65;93.67
31775;BME280;66189;49.000;11.640;2023-05-12T00:40:12;95710.38;;;8.63;93.54
31775;BME280;66189;49.000;11.640;2023-05-12T00:42:12;95699.59;;;8.60;93.75
31775;BME280;66189;49.000;11.640;2023-05-12T00:44:13;95707.69;;;8.63;93.74
31775;BME280;66189;49.000;11.640;2023-05-12T00:46:13;95707.75;;;8.67;94.02
31775;BME280;66189;49.000;11.640;2023-05-12T00:48:13;95707.84;;;8.70;94.10
31775;BME280;66189;49.000;11.640;2023-05-12T00:50:14;95702.91;;;8.73;93.99
31775;BME280;66189;49.000;11.640;2023-05-12T00:52:15;95705.25;;;8.74;93.71
31775;BME280;66189;49.000;11.640;2023-05-12T00:54:16;95699.97;;;8.78;93.65
31775;BME280;66189;49.000;11.640;2023-05-12T00:56:19;95703.06;;;8.80;93.22
31775;BME280;66189;49.000;11.640;2023-05-12T00:58:20;95700.03;;;8.81;93.17
31775;BME280;66189;49.000;11.640;2023-05-12T01:00:20;95706.97;;;8.82;93.16
31775;BME280;66189;49.000;11.640;2023-05-12T01:02:21;95701.25;;;8.84;93.00
31775;BME280;66189;49.000;11.640;2023-05-12T01:04:23;95702.88;;;8.88;93.15
31775;BME280;66189;49.000;11.640;2023-05-12T01:06:25;95693.97;;;8.84;92.89
31775;BME280;66189;49.000;11.640;2023-05-12T01:08:29;95697.84;;;8.87;92.74
31775;BME280;66189;49.000;11.640;2023-05-12T01:10:31;95689.81;;;8.87;92.65
31775;BME280;66189;49.000;11.640;2023-05-12T01:12:32;95690.56;;;8.87;92.56
31775;BME280;66189;49.000;11.640;2023-05-12T01:14:33;95692.13;;;8.88;92.70
31775;BME280;66189;49.000;11.640;2023-05-12T01:16:34;95700.19;;;8.88;92.53
31775;BME280;66189;49.000;11.640;2023-05-12T01:18:36;95689.81;;;8.87;92.36
31775;BME280;66189;49.000;11.640;2023-05-12T01:20:38;95699.03;;;8.89;92.43
31775;BME280;66189;49.000;11.640;2023-05-12T01:22:41;95690.22;;;8.89;92.27
31775;BME280;66189;49.000;11.640;2023-05-12T01:24:45;95685.28;;;8.91;92.21
31775;BME280;66189;49.000;11.640;2023-05-12T01:26:47;95691.78;;;8.90;91.94
31775;BME280;66189;49.000;11.640;2023-05-12T01:28:47;95693.59;;;8.86;92.05
31775;BME280;66189;49.000;11.640;2023-05-12T01:30:48;95690.63;;;8.91;92.18
31775;BME280;66189;49.000;11.640;2023-05-12T01:32:49;95688.31;;;8.89;91.92
31775;BME280;66189;49.000;11.640;2023-05-12T01:34:51;95689.88;;;8.91;91.69
31775;BME280;66189;49.000;11.640;2023-05-12T01:36:53;95694.47;;;8.90;91.41
31775;BME280;66189;49.000;11.640;2023-05-12T01:38:53;95691.06;;;8.93;91.86
31775;BME280;66189;49.000;11.640;2023-05-12T01:40:54;95694.94;;;8.96;91.69
31775;BME280;66189;49.000;11.640;2023-05-12T01:42:54;95688.41;;;8.93;91.32
31775;BME280;66189;49.000;11.640;2023-05-12T01:44:55;95693.66;;;8.89;91.08
31775;BME280;66189;49.000;11.640;2023-05-12T01:46:55;95695.94;;;8.87;91.49
31775;BME280;66189;49.000;11.640;2023-05-12T01:48:56;95695.94;;;8.87;91.70
31775;BME280;66189;49.000;11.640;2023-05-12T01:50:58;95690.22;;;8.89;91.42
31775;BME280;66189;49.000;11.640;2023-05-12T01:52:58;95693.19;;;8.84;91.52
31775;BME280;66189;49.000;11.640;2023-05-12T01:54:59;95685.91;;;8.84;91.61
31775;BME280;66189;49.000;11.640;2023-05-12T01:57:03;95695.94;;;8.87;91.67
31775;BME280;66189;49.000;11.640;2023-05-12T01:59:03;95700.72;;;8.78;91.46
31775;BME280;66189;49.000;11.640;2023-05-12T02:01:04;95692.84;;;8.85;91.58
31775;BME280;66189;49.000;11.640;2023-05-12T02:03:04;95689.44;;;8.88;91.46
31775;BME280;66189;49.000;11.640;2023-05-12T02:05:04;95693.97;;;8.84;91.51
31775;BME280;66189;49.000;11.640;2023-05-12T02:07:05;95695.88;;;8.84;91.48
31775;BME280;66189;49.000;11.640;2023-05-12T02:09:05;95689.72;;;8.83;91.71
31775;BME280;66189;49.000;11.640;2023-05-12T02:11:06;95690.06;;;8.82;91.48
31775;BME280;66189;49.000;11.640;2023-05-12T02:13:07;95690.00;;;8.78;91.66
31775;BME280;66189;49.000;11.640;2023-05-12T02:15:08;95687.69;;;8.77;91.83
31775;BME280;66189;49.000;11.640;2023-05-12T02:17:12;95687.75;;;8.80;92.01
31775;BME280;66189;49.000;11.640;2023-05-12T02:19:12;95680.50;;;8.81;91.92
31775;BME280;66189;49.000;11.640;2023-05-12T02:21:12;95680.13;;;8.82;91.70
31775;BME280;66189;49.000;11.640;2023-05-12T02:23:13;95688.03;;;8.75;92.03
31775;BME280;66189;49.000;11.640;2023-05-12T02:25:13;95686.91;;;8.76;92.25
31775;BME280;66189;49.000;11.640;2023-05-12T02:27:14;95675.81;;;8.78;91.99
31775;BME280;66189;49.000;11.640;2023-05-12T02:29:15;95676.94;;;8.77;92.31
31775;BME280;66189;49.000;11.640;2023-05-12T02:31:16;95688.09;;;8.79;92.14
31775;BME280;66189;49.000;11.640;2023-05-12T02:33:17;95681.97;;;8.78;92.05
31775;BME280;66189;49.000;11.640;2023-05-12T02:35:17;95677.00;;;8.80;92.01
31775;BME280;66189;49.000;11.640;2023-05-12T02:37:17;95671.22;;;8.78;91.90
31775;BME280;66189;49.000;11.640;2023-05-12T02:39:18;95671.22;;;8.78;92.02
31775;BME280;66189;49.000;11.640;2023-05-12T02:41:18;95670.53;;;8.81;91.91
31775;BME280;66189;49.000;11.640;2023-05-12T02:43:19;95669.81;;;8.84;91.85
31775;BME280;66189;49.000;11.640;2023-05-12T02:45:19;95673.16;;;8.78;91.72
31775;BME280;66189;49.000;11.640;2023-05-12T02:47:20;95671.28;;;8.82;91.71
31775;BME280;66189;49.000;11.640;2023-05-12T02:49:20;95667.50;;;8.83;91.72
31775;BME280;66189;49.000;11.640;2023-05-12T02:51:20;95672.16;;;8.86;91.60
31775;BME280;66189;49.000;11.640;2023-05-12T02:53:21;95672.16;;;8.86;91.50
31775;BME280;66189;49.000;11.640;2023-05-12T02:55:21;95670.59;;;8.85;91.31
31775;BME280;66189;49.000;11.640;2023-05-12T02:57:21;95672.56;;;8.88;91.56
31775;BME280;66189;49.000;11.640;2023-05-12T02:59:22;95673.25;;;8.85;91.44
31775;BME280;66189;49.000;11.640;2023-05-12T03:01:22;95673.25;;;8.85;91.71
31775;BME280;66189;49.000;11.640;2023-05-12T03:03:23;95670.16;;;8.83;91.53
31775;BME280;66189;49.000;11.640;2023-05-12T03:05:24;95669.81;;;8.84;91.65
31775;BME280;66189;49.000;11.640;2023-05-12T03:07:24;95670.94;;;8.83;91.71
31775;BME280;66189;49.000;11.640;2023-05-12T03:09:24;95670.16;;;8.83;91.74
31775;BME280;66189;49.000;11.640;2023-05-12T03:11:25;95673.63;;;8.83;91.74
31775;BME280;66189;49.000;11.640;2023-05-12T03:13:25;95668.25;;;8.83;91.96
31775;BME280;66189;49.000;11.640;2023-05-12T03:15:26;95672.84;;;8.83;91.74
31775;BME280;66189;49.000;11.640;2023-05-12T03:17:26;95672.50;;;8.84;91.67
31775;BME280;66189;49.000;11.640;2023-05-12T03:19:27;95672.09;;;8.82;91.68
31775;BME280;66189;49.000;11.640;2023-05-12T03:21:27;95674.84;;;8.86;91.59
31775;BME280;66189;49.000;11.640;2023-05-12T03:23:27;95678.72;;;8.88;91.58
31775;BME280;66189;49.000;11.640;2023-05-12T03:25:29;95677.88;;;8.84;91.23
31775;BME280;66189;49.000;11.640;2023-05-12T03:27:32;95675.47;;;8.79;91.70
31775;BME280;66189;49.000;11.640;2023-05-12T03:29:32;95672.00;;;8.79;91.58
31775;BME280;66189;49.000;11.640;2023-05-12T03:31:32;95677.00;;;8.80;91.63
31775;BME280;66189;49.000;11.640;2023-05-12T03:33:33;95687.38;;;8.82;91.47
31775;BME280;66189;49.000;11.640;2023-05-12T03:35:33;95677.81;;;8.81;91.65
31775;BME280;66189;49.000;11.640;2023-05-12T03:37:35;95681.19;;;8.78;91.44
31775;BME280;66189;49.000;11.640;2023-05-12T03:39:36;95685.34;;;8.75;91.67
31775;BME280;66189;49.000;11.640;2023-05-12T03:41:37;95683.00;;;8.74;91.98
31775;BME280;66189;49.000;11.640;2023-05-12T03:43:37;95676.88;;;8.73;91.96
31775;BME280;66189;49.000;11.640;2023-05-12T03:45:38;95676.53;;;8.75;92.01
31775;BME280;66189;49.000;11.640;2023-05-12T03:47:38;95676.53;;;8.75;92.01
31775;BME280;66189;49.000;11.640;2023-05-12T03:49:40;95675.31;;;8.72;92.13
31775;BME280;66189;49.000;11.640;2023-05-12T03:51:40;95672.63;;;8.72;92.08
31775;BME280;66189;49.000;11.640;2023-05-12T03:53:40;95668.03;;;8.73;91.91
31775;BME280;66189;49.000;11.640;2023-05-12T03:55:44;95672.69;;;8.76;92.03
31775;BME280;66189;49.000;11.640;2023-05-12T03:57:44;95677.22;;;8.71;92.35
31775;BME280;66189;49.000;11.640;2023-05-12T03:59:46;95676.53;;;8.75;92.21
31775;BME280;66189;49.000;11.640;2023-05-12T04:01:47;95670.00;;;8.76;91.89
31775;BME280;66189;49.000;11.640;2023-05-12T04:03:47;95682.31;;;8.77;91.88
31775;BME280;66189;49.000;11.640;2023-05-12T04:05:47;95670.09;;;8.79;91.82
31775;BME280;66189;49.000;11.640;2023-05-12T04:07:48;95672.84;;;8.83;91.73
31775;BME280;66189;49.000;11.640;2023-05-12T04:09:48;95671.28;;;8.82;91.73
31775;BME280;66189;49.000;11.640;2023-05-12T04:11:49;95669.06;;;8.84;91.58
31775;BME280;66189;49.000;11.640;2023-05-12T04:13:50;95663.69;;;8.84;91.63
31775;BME280;66189;49.000;11.640;2023-05-12T04:15:50;95667.84;;;8.81;91.59
31775;BME280;66189;49.000;11.640;2023-05-12T04:17:53;95665.50;;;8.80;91.53
31775;BME280;66189;49.000;11.640;2023-05-12T04:19:54;95672.84;;;8.83;91.56
31775;BME280;66189;49.000;11.640;2023-05-12T04:21:54;95673.63;;;8.83;91.76
31775;BME280;66189;49.000;11.640;2023-05-12T04:23:55;95672.09;;;8.82;91.33
31775;BME280;66189;49.000;11.640;2023-05-12T04:25:58;95673.97;;;8.82;91.58
31775;BME280;66189;49.000;11.640;2023-05-12T04:28:02;95677.44;;;8.82;91.54
31775;BME280;66189;49.000;11.640;2023-05-12T04:30:02;95675.53;;;8.83;91.67
31775;BME280;66189;49.000;11.640;2023-05-12T04:32:07;95681.31;;;8.85;91.70
31775;BME280;66189;49.000;11.640;2023-05-12T04:34:08;95683.03;;;8.93;91.97
31775;BME280;66189;49.000;11.640;2023-05-12T04:36:08;95685.88;;;9.00;91.48
31775;BME280;66189;49.000;11.640;2023-05-12T04:38:09;95685.56;;;9.05;90.88
31775;BME280;66189;49.000;11.640;2023-05-12T04:40:11;95691.91;;;8.97;90.99
31775;BME280;66189;49.000;11.640;2023-05-12T04:42:11;95694.31;;;9.02;90.92
31775;BME280;66189;49.000;11.640;2023-05-12T04:44:11;95693.13;;;9.00;90.66
31775;BME280;66189;49.000;11.640;2023-05-12T04:46:13;95693.91;;;9.00;90.34
31775;BME280;66189;49.000;11.640;2023-05-12T04:48:13;95691.22;;;9.00;90.48
31775;BME280;66189;49.000;11.640;2023-05-12T04:50:15;95691.28;;;9.04;90.69
31775;BME280;66189;49.000;11.640;2023-05-12T04:52:15;95703.84;;;9.00;90.17
31775;BME280;66189;49.000;11.640;2023-05-12T04:54:15;95695.03;;;8.99;90.38
31775;BME280;66189;49.000;11.640;2023-05-12T04:56:16;95697.72;;;8.99;90.30
31775;BME280;66189;49.000;11.640;2023-05-12T04:58:16;95699.94;;;8.97;90.38
31775;BME280;66189;49.000;11.640;2023-05-12T05:00:17;95696.09;;;8.95;90.46
31775;BME280;66189;49.000;11.640;2023-05-12T05:02:18;95699.94;;;8.97;90.64
31775;BME280;66189;49.000;11.640;2023-05-12T05:04:19;95699.19;;;8.97;90.81
31775;BME280;66189;49.000;11.640;2023-05-12T05:06:20;95702.63;;;8.97;90.90
31775;BME280;66189;49.000;11.640;2023-05-12T05:08:22;95705.31;;;8.97;90.24
31775;BME280;66189;49.000;11.640;2023-05-12T05:10:22;95704.19;;;8.98;90.57
31775;BME280;66189;49.000;11.640;2023-05-12T05:12:23;95705.00;;;8.99;90.40
31775;BME280;66189;49.000;11.640;2023-05-12T05:14:24;95709.16;;;8.96;90.79
31775;BME280;66189;49.000;11.640;2023-05-12T05:16:26;95700.81;;;9.01;90.75
31775;BME280;66189;49.000;11.640;2023-05-12T05:18:27;95711.47;;;8.98;90.58
31775;BME280;66189;49.000;11.640;2023-05-12T05:20:28;95702.22;;;8.95;90.97
31775;BME280;66189;49.000;11.640;2023-05-12T05:22:28;95708.94;;;9.05;91.11
31775;BME280;66189;49.000;11.640;2023-05-12T05:24:29;95706.53;;;9.00;91.26
31775;BME280;66189;49.000;11.640;2023-05-12T05:26:29;95717.69;;;9.02;90.89
31775;BME280;66189;49.000;11.640;2023-05-12T05:28:29;95711.28;;;9.06;90.75
31775;BME280;66189;49.000;11.640;2023-05-12T05:30:30;95715.16;;;9.09;90.59
31775;BME280;66189;49.000;11.640;2023-05-12T05:32:30;95719.09;;;9.15;90.53
31775;BME280;66189;49.000;11.640;2023-05-12T05:34:31;95716.34;;;9.12;90.29
31775;BME280;66189;49.000;11.640;2023-05-12T05:36:31;95721.88;;;9.19;90.35
31775;BME280;66189;49.000;11.640;2023-05-12T05:38:31;95722.84;;;9.30;89.93
31775;BME280;66189;49.000;11.640;2023-05-12T05:40:32;95719.81;;;9.12;90.10
31775;BME280;66189;49.000;11.640;2023-05-12T05:42:32;95717.97;;;9.16;90.00
31775;BME280;66189;49.000;11.640;2023-05-12T05:44:33;95720.44;;;9.25;90.26
31775;BME280;66189;49.000;11.640;2023-05-12T05:46:34;95723.19;;;9.29;89.74
31775;BME280;66189;49.000;11.640;2023-05-12T05:48:34;95723.56;;;9.27;89.60
31775;BME280;66189;49.000;11.640;2023-05-12T05:50:36;95722.84;;;9.30;89.67
31775;BME280;66189;49.000;11.640;2023-05-12T05:52:37;95728.84;;;9.23;89.49
31775;BME280;66189;49.000;11.640;2023-05-12T05:54:37;95728.56;;;9.29;89.38
31775;BME280;66189;49.000;11.640;2023-05-12T05:56:38;95728.72;;;9.36;89.97
31775;BME280;66189;49.000;11.640;2023-05-12T05:58:38;95730.28;;;9.37;89.16
31775;BME280;66189;49.000;11.640;2023-05-12T06:00:38;95727.94;;;9.35;89.69
31775;BME280;66189;49.000;11.640;2023-05-12T06:02:39;95736.56;;;9.45;90.06
31775;BME280;66189;49.000;11.640;2023-05-12T06:04:40;95736.25;;;9.50;89.14
31775;BME280;66189;49.000;11.640;2023-05-12T06:06:41;95742.91;;;9.36;88.84
31775;BME280;66189;49.000;11.640;2023-05-12T06:08:41;95733.72;;;9.37;89.37
31775;BME280;66189;49.000;11.640;2023-05-12T06:10:42;95742.28;;;9.43;89.10
31775;BME280;66189;49.000;11.640;2023-05-12T06:12:42;95744.97;;;9.43;88.86
31775;BME280;66189;49.000;11.640;2023-05-12T06:14:42;95740.41;;;9.47;89.12
31775;BME280;66189;49.000;11.640;2023-05-12T06:16:43;95754.63;;;9.48;89.46
31775;BME280;66189;49.000;11.640;2023-05-12T06:18:43;95749.38;;;9.55;89.69
31775;BME280;66189;49.000;11.640;2023-05-12T06:20:43;95753.75;;;9.63;89.07
31775;BME280;66189;49.000;11.640;2023-05-12T06:22:44;95751.09;;;9.63;88.37
31775;BME280;66189;49.000;11.640;2023-05-12T06:24:45;95748.44;;;9.67;89.79
31775;BME280;66189;49.000;11.640;2023-05-12T06:26:45;95751.63;;;9.72;89.33
31775;BME280;66189;49.000;11.640;2023-05-12T06:28:46;95756.44;;;9.83;88.66
31775;BME280;66189;49.000;11.640;2023-05-12T06:30:46;95756.34;;;9.79;88.64
31775;BME280;66189;49.000;11.640;2023-05-12T06:32:46;95750.03;;;9.91;89.05
31775;BME280;66189;49.000;11.640;2023-05-12T06:34:47;95751.47;;;10.08;88.76
31775;BME280;66189;49.000;11.640;2023-05-12T06:36:47;95761.44;;;10.07;87.56
31775;BME280;66189;49.000;11.640;2023-05-12T06:38:48;95761.44;;;10.07;87.87
31775;BME280;66189;49.000;11.640;2023-05-12T06:40:49;95762.69;;;10.13;88.80
31775;BME280;66189;49.000;11.640;2023-05-12T06:42:49;95763.72;;;10.05;88.02
31775;BME280;66189;49.000;11.640;2023-05-12T06:44:53;95768.06;;;10.13;87.05
31775;BME280;66189;49.000;11.640;2023-05-12T06:46:54;95763.41;;;10.10;87.64
31775;BME280;66189;49.000;11.640;2023-05-12T06:48:54;95765.50;;;9.98;88.01
31775;BME280;66189;49.000;11.640;2023-05-12T06:50:55;95771.03;;;9.85;88.07
31775;BME280;66189;49.000;11.640;2023-05-12T06:52:55;95765.97;;;10.03;87.62
31775;BME280;66189;49.000;11.640;2023-05-12T06:54:56;95766.16;;;9.91;88.01
31775;BME280;66189;49.000;11.640;2023-05-12T06:56:56;95763.25;;;10.00;88.22
31775;BME280;66189;49.000;11.640;2023-05-12T06:58:57;95768.44;;;9.89;88.99
31775;BME280;66189;49.000;11.640;2023-05-12T07:01:00;95767.75;;;9.95;88.26
31775;BME280;66189;49.000;11.640;2023-05-12T07:03:00;95768.56;;;9.96;88.42
31775;BME280;66189;49.000;11.640;2023-05-12T07:05:00;95771.59;;;9.94;88.32
31775;BME280;66189;49.000;11.640;2023-05-12T07:07:01;95765.94;;;10.00;88.04
31775;BME280;66189;49.000;11.640;2023-05-12T07:09:01;95770.25;;;9.85;88.61
31775;BME280;66189;49.000;11.640;2023-05-12T07:11:02;95767.09;;;9.79;89.42
31775;BME280;66189;49.000;11.640;2023-05-12T07:13:02;95767.28;;;9.90;89.49
31775;BME280;66189;49.000;11.640;2023-05-12T07:15:03;95774.25;;;9.71;89.76
31775;BME280;66189;49.000;11.640;2023-05-12T07:17:04;95774.03;;;10.03;89.25
31775;BME280;66189;49.000;11.640;2023-05-12T07:19:04;95767.84;;;9.99;89.15
31775;BME280;66189;49.000;11.640;2023-05-12T07:21:05;95777.38;;;9.96;89.05
31775;BME280;66189;49.000;11.640;2023-05-12T07:23:05;95778.31;;;9.85;89.14
31775;BME280;66189;49.000;11.640;2023-05-12T07:25:06;95779.44;;;9.84;88.88
31775;BME280;66189;49.000;11.640;2023-05-12T07:27:07;95772.81;;;9.77;89.48
31775;BME280;66189;49.000;11.640;2023-05-12T07:29:07;95770.25;;;9.85;89.42
31775;BME280;66189;49.000;11.640;2023-05-12T07:31:10;95775.66;;;9.65;88.83
31775;BME280;66189;49.000;11.640;2023-05-12T07:33:10;95778.84;;;9.71;89.11
31775;BME280;66189;49.000;11.640;2023-05-12T07:35:10;95783.28;;;9.83;89.32
31775;BME280;66189;49.000;11.640;2023-05-12T07:37:11;95775.81;;;9.95;89.14
31775;BME280;66189;49.000;11.640;2023-05-12T07:39:11;95776.25;;;9.98;89.19
31775;BME280;66189;49.000;11.640;2023-05-12T07:41:14;95783.66;;;10.04;88.99
31775;BME280;66189;49.000;11.640;2023-05-12T07:43:14;95781.03;;;10.08;88.99
31775;BME280;66189;49.000;11.640;2023-05-12T07:45:16;95777.25;;;10.12;89.12
31775;BME280;66189;49.000;11.640;2023-05-12T07:47:22;95774.81;;;10.27;89.77
31775;BME280;66189;49.000;11.640;2023-05-12T07:49:22;95775.75;;;10.35;89.51
31775;BME280;66189;49.000;11.640;2023-05-12T07:51:22;95779.25;;;10.62;88.41
31775;BME280;66189;49.000;11.640;2023-05-12T07:53:23;95782.97;;;10.54;88.15
31775;BME280;66189;49.000;11.640;2023-05-12T07:55:23;95785.72;;;10.57;87.63
31775;BME280;66189;49.000;11.640;2023-05-12T07:57:24;95779.47;;;10.53;87.28
31775;BME280;66189;49.000;11.640;2023-05-12T07:59:25;95786.59;;;10.65;87.66
31775;BME280;66189;49.000;11.640;2023-05-12T08:01:25;95787.91;;;10.52;87.84
31775;BME280;66189;49.000;11.640;2023-05-12T08:03:25;95784.22;;;10.60;87.97
31775;BME280;66189;49.000;11.640;2023-05-12T08:05:26;95784.47;;;10.51;88.52
31775;BME280;66189;49.000;11.640;2023-05-12T08:07:26;95784.22;;;10.60;87.23
31775;BME280;66189;49.000;11.640;2023-05-12T08:09:26;95784.81;;;10.49;88.29
31775;BME280;66189;49.000;11.640;2023-05-12T08:11:27;95780.63;;;10.52;87.69
31775;BME280;66189;49.000;11.640;2023-05-12T08:13:27;95785.94;;;10.48;87.07
31775;BME280;66189;49.000;11.640;2023-05-12T08:15:27;95785.94;;;10.48;86.43
31775;BME280;66189;49.000;11.640;2023-05-12T08:17:28;95784.81;;;10.49;87.20
31775;BME280;66189;49.000;11.640;2023-05-12T08:19:28;95792.38;;;10.40;86.17
31775;BME280;66189;49.000;11.640;2023-05-12T08:21:28;95787.19;;;10.31;87.02
31775;BME280;66189;49.000;11.640;2023-05-12T08:23:29;95780.38;;;10.14;87.30
31775;BME280;66189;49.000;11.640;2023-05-12T08:25:29;95784.91;;;10.10;88.00
31775;BME280;66189;49.000;11.640;2023-05-12T08:27:29;95785.94;;;10.02;88.34
31775;BME280;66189;49.000;11.640;2023-05-12T08:29:30;95786.88;;;9.90;88.28
31775;BME280;66189;49.000;11.640;2023-05-12T08:31:30;95790.78;;;9.93;88.40
31775;BME280;66189;49.000;11.640;2023-05-12T08:33:32;95792.66;;;9.92;88.87
31775;BME280;66189;49.000;11.640;2023-05-12T08:35:33;95791.72;;;10.04;88.15
31775;BME280;66189;49.000;11.640;2023-05-12T08:37:34;95795.63;;;10.07;89.15
31775;BME280;66189;49.000;11.640;2023-05-12T08:39:35;95793.84;;;10.14;88.82
31775;BME280;66189;49.000;11.640;2023-05-12T08:43:50;95794.41;;;10.27;88.53
31775;BME280;66189;49.000;11.640;2023-05-12T08:45:51;95796.81;;;10.32;89.27
31775;BME280;66189;49.000;11.640;2023-05-12T08:47:56;95800.31;;;10.33;88.57
31775;BME280;66189;49.000;11.640;2023-05-12T08:49:59;95802.34;;;10.20;88.90
31775;BME280;66189;49.000;11.640;2023-05-12T08:52:00;95800.38;;;10.17;88.44
31775;BME280;66189;49.000;11.640;2023-05-12T08:54:00;95806.47;;;10.14;88.74
31775;BME280;66189;49.000;11.640;2023-05-12T08:56:04;95809.09;;;10.10;88.30
31775;BME280;66189;49.000;11.640;2023-05-12T08:58:05;95804.59;;;10.14;88.83
31775;BME280;66189;49.000;11.640;2023-05-12T09:00:07;95810.63;;;10.31;89.00
31775;BME280;66189;49.000;11.640;2023-05-12T09:02:07;95810.38;;;10.17;89.05
31775;BME280;66189;49.000;11.640;2023-05-12T09:04:08;95808.75;;;10.12;88.82
31775;BME280;66189;49.000;11.640;2023-05-12T09:06:09;95809.81;;;10.07;89.93
31775;BME280;66189;49.000;11.640;2023-05-12T09:08:10;95804.41;;;10.04;88.93
31775;BME280;66189;49.000;11.640;2023-05-12T09:10:13;95812.31;;;9.96;88.63
31775;BME280;66189;49.000;11.640;2023-05-12T09:12:15;95817.38;;;9.78;89.06
31775;BME280;66189;49.000;11.640;2023-05-12T09:14:18;95808.59;;;9.82;89.42
31775;BME280;66189;49.000;11.640;2023-05-12T09:16:23;95813.53;;;9.99;89.18
31775;BME280;66189;49.000;11.640;2023-05-12T09:18:24;95819.38;;;10.05;88.92
31775;BME280;66189;49.000;11.640;2023-05-12T09:20:25;95809.59;;;9.93;89.08
31775;BME280;66189;49.000;11.640;2023-05-12T09:22:31;95811.13;;;9.94;89.16
31775;BME280;66189;49.000;11.640;2023-05-12T09:24:35;95809.28;;;9.98;89.07
31775;BME280;66189;49.000;11.640;2023-05-12T09:26:43;95822.56;;;9.91;89.45
31775;BME280;66189;49.000;11.640;2023-05-12T09:28:44;95816.28;;;10.03;89.42
31775;BME280;66189;49.000;11.640;2023-05-12T09:30:45;95814.66;;;9.98;89.24
31775;BME280;66189;49.000;11.640;2023-05-12T09:32:45;95819.53;;;9.92;89.70
31775;BME280;66189;49.000;11.640;2023-05-12T09:34:49;95820.66;;;9.91;89.70
31775;BME280;66189;49.000;11.640;2023-05-12T09:36:56;95823.63;;;10.06;89.47
31775;BME280;66189;49.000;11.640;2023-05-12T09:39:06;95819.91;;;10.14;89.53
31775;BME280;66189;49.000;11.640;2023-05-12T09:41:07;95819.03;;;10.29;89.79
31775;BME280;66189;49.000;11.640;2023-05-12T09:43:07;95822.75;;;10.44;90.26
31775;BME280;66189;49.000;11.640;2023-05-12T09:45:08;95824.13;;;10.58;88.96
31775;BME280;66189;49.000;11.640;2023-05-12T09:47:09;95821.97;;;10.67;88.99
31775;BME280;66189;49.000;11.640;2023-05-12T09:49:09;95826.53;;;10.63;86.83
31775;BME280;66189;49.000;11.640;2023-05-12T09:51:10;95833.44;;;10.64;87.24
31775;BME280;66189;49.000;11.640;2023-05-12T09:53:11;95827.66;;;10.62;87.58
31775;BME280;66189;49.000;11.640;2023-05-12T09:55:12;95836.00;;;10.80;88.34
31775;BME280;66189;49.000;11.640;2023-05-12T09:57:12;95825.84;;;10.70;86.49
31775;BME280;66189;49.000;11.640;2023-05-12T09:59:14;95826.28;;;10.98;88.11
31775;BME280;66189;49.000;11.640;2023-05-12T10:01:15;95814.75;;;10.98;86.31
31775;BME280;66189;49.000;11.640;2023-05-12T10:03:16;95821.16;;;11.16;87.14
31775;BME280;66189;49.000;11.640;2023-05-12T10:05:19;95823.72;;;11.36;86.68
31775;BME280;66189;49.000;11.640;2023-05-12T10:07:20;95822.56;;;11.37;84.77
31775;BME280;66189;49.000;11.640;2023-05-12T10:09:22;95817.63;;;11.43;84.27
31775;BME280;66189;49.000;11.640;2023-05-12T10:11:24;95825.06;;;11.49;85.89
31775;BME280;66189;49.000;11.640;2023-05-12T10:13:25;95816.25;;;11.52;86.16
31775;BME280;66189;49.000;11.640;2023-05-12T10:15:25;95809.94;;;11.41;83.57
31775;BME280;66189;49.000;11.640;2023-05-12T10:17:26;95820.72;;;11.45;83.57
31775;BME280;66189;49.000;11.640;2023-05-12T10:19:30;95820.66;;;11.37;82.92
31775;BME280;66189;49.000;11.640;2023-05-12T10:21:30;95814.41;;;11.30;82.56
31775;BME280;66189;49.000;11.640;2023-05-12T10:23:31;95825.78;;;11.16;81.57
31775;BME280;66189;49.000;11.640;2023-05-12T10:25:31;95817.19;;;11.37;83.74
31775;BME280;66189;49.000;11.640;2023-05-12T10:27:33;95824.63;;;11.47;82.90
31775;BME280;66189;49.000;11.640;2023-05-12T10:29:33;95824.75;;;11.58;83.16
31775;BME280;66189;49.000;11.640;2023-05-12T10:31:34;95819.91;;;11.71;82.81
31775;BME280;66189;49.000;11.640;2023-05-12T10:33:35;95830.41;;;11.80;83.52
31775;BME280;66189;49.000;11.640;2023-05-12T10:35:36;95821.78;;;11.67;82.43
31775;BME280;66189;49.000;11.640;2023-05-12T10:37:37;95820.91;;;11.59;81.95
31775;BME280;66189;49.000;11.640;2023-05-12T10:39:48;95826.69;;;11.58;81.01